Mamolino 2072 — 9HB4203 — position and weather

sailwx.info

Track history (hours):
 
Tides and Currents Weather Stations Pressure Air Temp Water Temp Dewpoint Dewpoint Depression Visibility Wind Speed Wind Dir Waves Ship Positions

Mamolino 2072

Last reported at 2018-May-12 14:54 UTC. Time now 2018-Jun-21 16:24 UTC.
Position S 05°06' E 011°37'.
Warning: this ship's position is 40 days out of date.

Length 20 m; draft 1 m.

Type: Passenger vessel. MMSI: 229990000.

Date/timePositionNaut miles runAvg speedWind from/ knotsBaromVisibWave heightAir tempDewpointWater temp
2018-May-12 14:54S 05°06' E 011°37'1125.3
2018-May-12 14:29S 05°15' E 011°31'919.5
2018-May-12 14:00S 05°23' E 011°26'0 0.1
2018-May-12 13:28S 05°23' E 011°26'0 0.6
2018-May-12 12:59S 05°23' E 011°27'1 1.4
2018-May-12 12:30S 05°22' E 011°27'1224.2
2018-May-12 12:00S 05°12' E 011°33'7 0.1
2018-May-10 13:50S 05°07' E 011°37'923.8
2018-May-10 13:27S 05°15' E 011°33'1 1.7
2018-May-10 12:59S 05°15' E 011°32'917.3
2018-May-10 12:30S 05°18' E 011°24'1 2.5
2018-May-10 12:00S 05°19' E 011°23'0 0.0
2018-May-10 11:30S 05°19' E 011°23'0 0.0
2018-May-10 11:00S 05°19' E 011°23'0 0.0
2018-May-10 10:30S 05°19' E 011°23'0 0.0
2018-May-10 10:00S 05°19' E 011°23'0 0.1
2018-May-10 09:30S 05°19' E 011°23'1 2.9
2018-May-10 09:00S 05°19' E 011°25'1019.2
2018-May-10 08:30S 05°15' E 011°33'917.0
2018-May-10 07:57S 05°07' E 011°39'5 0.3
2018-May-09 14:04S 05°05' E 011°34'223.1
2018-May-09 13:58S 05°06' E 011°33'1123.2
2018-May-09 13:29S 05°15' E 011°25'3 5.9
2018-May-09 12:58S 05°17' E 011°23'2 3.7
2018-May-09 12:30S 05°19' E 011°23'0 0.0
2018-May-09 12:00S 05°19' E 011°23'0 0.0
2018-May-09 11:30S 05°19' E 011°23'0 0.0
2018-May-09 11:00S 05°19' E 011°23'0 0.0
2018-May-09 10:30S 05°19' E 011°23'0 0.0
2018-May-09 10:00S 05°19' E 011°23'0 0.0
2018-May-09 09:30S 05°19' E 011°23'0 0.0
2018-May-09 09:00S 05°19' E 011°23'0 0.0
2018-May-09 08:30S 05°19' E 011°23'811.2
2018-May-09 07:49S 05°12' E 011°27'823.9
2018-May-09 07:30S 05°07' E 011°32'1223.8
2018-May-09 07:00S 04°58' E 011°40'  
2018-May-04 09:45S 05°06' E 011°26'624.0
2018-May-04 09:30S 05°10' E 011°22'5 9.1
2018-May-04 09:00S 05°13' E 011°18'1 1.0
2018-May-04 08:29S 05°13' E 011°19'1020.7
2018-May-04 08:00S 05°06' E 011°26'8 0.4
2018-May-03 13:28S 05°13' E 011°30'1020.6
2018-May-03 12:58S 05°21' E 011°24'2 5.2
2018-May-03 12:30S 05°19' E 011°23'0 0.0
2018-May-03 11:59S 05°19' E 011°23'0 0.0
2018-May-03 11:28S 05°19' E 011°23'0 0.0
2018-May-03 11:00S 05°19' E 011°23'0 0.0
2018-May-03 10:30S 05°19' E 011°23'0 0.0
2018-May-03 10:00S 05°19' E 011°23'1 1.5
2018-May-03 09:09S 05°18' E 011°24'0 3.3
2018-May-03 09:00S 05°17' E 011°24'1120.9
2018-May-03 08:30S 05°10' E 011°31'  
Track history (hours):
 
Tides and Currents Weather Stations Pressure Air Temp Water Temp Dewpoint Dewpoint Depression Visibility Wind Speed Wind Dir Waves Ship Positions

Mamolino 2072

Last reported at 2018-May-12 14:54 UTC. Time now 2018-Jun-21 16:24 UTC.
Position S 05°06' E 011°37'.
Warning: this ship's position is 40 days out of date.

Length 20 m; draft 1 m.

Type: Passenger vessel. MMSI: 229990000.

Date/timePositionNaut miles runAvg speedWind from/ knotsBaromVisibWave heightAir tempDewpointWater temp
2018-May-12 14:54S 05°06' E 011°37'1125.3
2018-May-12 14:29S 05°15' E 011°31'919.5
2018-May-12 14:00S 05°23' E 011°26'0 0.1
2018-May-12 13:28S 05°23' E 011°26'0 0.6
2018-May-12 12:59S 05°23' E 011°27'1 1.4
2018-May-12 12:30S 05°22' E 011°27'1224.2
2018-May-12 12:00S 05°12' E 011°33'7 0.1
2018-May-10 13:50S 05°07' E 011°37'923.8
2018-May-10 13:27S 05°15' E 011°33'1 1.7
2018-May-10 12:59S 05°15' E 011°32'917.3
2018-May-10 12:30S 05°18' E 011°24'1 2.5
2018-May-10 12:00S 05°19' E 011°23'0 0.0
2018-May-10 11:30S 05°19' E 011°23'0 0.0
2018-May-10 11:00S 05°19' E 011°23'0 0.0
2018-May-10 10:30S 05°19' E 011°23'0 0.0
2018-May-10 10:00S 05°19' E 011°23'0 0.1
2018-May-10 09:30S 05°19' E 011°23'1 2.9
2018-May-10 09:00S 05°19' E 011°25'1019.2
2018-May-10 08:30S 05°15' E 011°33'917.0
2018-May-10 07:57S 05°07' E 011°39'5 0.3
2018-May-09 14:04S 05°05' E 011°34'223.1
2018-May-09 13:58S 05°06' E 011°33'1123.2
2018-May-09 13:29S 05°15' E 011°25'3 5.9
2018-May-09 12:58S 05°17' E 011°23'2 3.7
2018-May-09 12:30S 05°19' E 011°23'0 0.0
2018-May-09 12:00S 05°19' E 011°23'0 0.0
2018-May-09 11:30S 05°19' E 011°23'0 0.0
2018-May-09 11:00S 05°19' E 011°23'0 0.0
2018-May-09 10:30S 05°19' E 011°23'0 0.0
2018-May-09 10:00S 05°19' E 011°23'0 0.0
2018-May-09 09:30S 05°19' E 011°23'0 0.0
2018-May-09 09:00S 05°19' E 011°23'0 0.0
2018-May-09 08:30S 05°19' E 011°23'811.2
2018-May-09 07:49S 05°12' E 011°27'823.9
2018-May-09 07:30S 05°07' E 011°32'1223.8
2018-May-09 07:00S 04°58' E 011°40'  
2018-May-04 09:45S 05°06' E 011°26'624.0
2018-May-04 09:30S 05°10' E 011°22'5 9.1
2018-May-04 09:00S 05°13' E 011°18'1 1.0
2018-May-04 08:29S 05°13' E 011°19'1020.7
2018-May-04 08:00S 05°06' E 011°26'8 0.4
2018-May-03 13:28S 05°13' E 011°30'1020.6
2018-May-03 12:58S 05°21' E 011°24'2 5.2
2018-May-03 12:30S 05°19' E 011°23'0 0.0
2018-May-03 11:59S 05°19' E 011°23'0 0.0
2018-May-03 11:28S 05°19' E 011°23'0 0.0
2018-May-03 11:00S 05°19' E 011°23'0 0.0
2018-May-03 10:30S 05°19' E 011°23'0 0.0
2018-May-03 10:00S 05°19' E 011°23'1 1.5
2018-May-03 09:09S 05°18' E 011°24'0 3.3
2018-May-03 09:00S 05°17' E 011°24'1120.9
2018-May-03 08:30S 05°10' E 011°31'  

Dump ship's entire track history